createdAt,value
2022-08-03T11:24:58.341Z,95.80
2022-08-03T11:27:23.549Z,96.60
2022-08-03T11:29:32.594Z,97.60
2022-08-03T11:31:58.664Z,97.60
2022-08-03T11:34:08.506Z,97.50
2022-08-03T11:36:32.562Z,98.00
2022-08-03T11:39:16.734Z,98.10
2022-08-03T11:41:43.271Z,98.20
2022-08-03T11:43:54.734Z,98.90
2022-08-03T11:46:04.560Z,98.80
2022-08-03T11:48:17.567Z,99.00
2022-08-03T11:50:26.404Z,99.60
2022-08-03T11:52:43.120Z,99.60
2022-08-03T11:54:56.689Z,99.60
2022-08-03T11:57:05.701Z,99.20
2022-08-03T11:59:20.543Z,99.90
2022-08-03T12:01:31.604Z,99.50
2022-08-03T12:03:40.153Z,99.70
2022-08-03T12:05:52.227Z,99.20
2022-08-03T12:08:03.642Z,98.70
2022-08-03T12:10:15.728Z,98.50
2022-08-03T12:12:24.065Z,98.10
2022-08-03T12:14:49.164Z,98.60
2022-08-03T12:16:59.921Z,98.90
2022-08-03T12:19:08.480Z,98.90
2022-08-03T12:21:18.602Z,98.80
2022-08-03T12:23:28.996Z,98.50
2022-08-03T12:25:40.061Z,98.40
2022-08-03T12:27:48.379Z,99.00
2022-08-03T12:29:59.933Z,99.00
2022-08-03T12:32:08.291Z,98.60
2022-08-03T12:34:17.219Z,99.00
2022-08-03T12:36:25.559Z,99.20
2022-08-03T12:38:36.452Z,98.70
2022-08-03T12:40:56.265Z,97.70
2022-08-03T12:43:12.874Z,97.20
2022-08-03T12:45:24.952Z,97.70
2022-08-03T12:47:52.055Z,96.60
2022-08-03T12:50:00.283Z,97.20
2022-08-03T12:52:08.842Z,97.10
2022-08-03T12:54:19.030Z,97.90
2022-08-03T12:56:35.614Z,97.20
2022-08-03T12:58:44.516Z,98.00
2022-08-03T13:00:58.253Z,98.20
2022-08-03T13:03:39.220Z,97.60
2022-08-03T13:05:44.813Z,98.30
2022-08-03T13:07:53.176Z,97.00
2022-08-03T13:10:06.217Z,96.60
2022-08-03T13:12:17.657Z,97.60
2022-08-03T13:14:25.853Z,96.80
2022-08-03T13:16:35.628Z,96.50
2022-08-03T13:18:46.502Z,96.20
2022-08-03T13:20:56.409Z,95.60
2022-08-03T13:23:04.684Z,96.30
2022-08-03T13:25:13.010Z,96.60
2022-08-03T13:28:04.229Z,95.80
2022-08-03T13:29:49.721Z,95.60
2022-08-03T13:31:59.382Z,95.80
2022-08-03T13:34:07.671Z,96.60
2022-08-03T13:36:15.951Z,96.10
2022-08-03T13:38:27.132Z,96.90
2022-08-03T13:40:41.534Z,97.40
2022-08-03T13:42:50.207Z,97.40
2022-08-03T13:44:58.726Z,97.60
2022-08-03T14:16:22.598Z,96.40
2022-08-03T14:18:33.526Z,97.30
2022-08-03T14:20:49.023Z,97.80
2022-08-03T14:23:02.670Z,98.10
2022-08-03T14:25:11.201Z,98.30
2022-08-03T14:27:22.114Z,97.60
2022-08-03T14:29:30.521Z,97.40
2022-08-03T14:32:10.439Z,96.70
2022-08-03T14:34:08.408Z,97.40
2022-08-03T14:36:16.584Z,95.20
2022-08-03T14:38:25.233Z,95.80
2022-08-03T14:40:33.620Z,95.20
2022-08-03T14:42:41.846Z,96.10
2022-08-03T14:44:50.153Z,96.60
2022-08-03T14:46:59.712Z,95.00
2022-08-03T14:50:30.064Z,95.60
2022-08-03T14:51:36.185Z,96.10
2022-08-03T14:53:44.496Z,95.90
2022-08-03T14:55:53.527Z,95.60
2022-08-03T14:58:05.627Z,95.20
2022-08-03T15:00:28.731Z,94.80
2022-08-03T15:02:40.498Z,94.30
2022-08-03T15:04:48.803Z,95.10
2022-08-03T15:06:57.090Z,95.00
2022-08-03T15:09:22.472Z,94.40
2022-08-03T15:11:31.677Z,94.60
2022-08-03T15:13:39.867Z,95.10
2022-08-03T15:15:49.642Z,95.10
2022-08-03T15:18:00.048Z,95.00
2022-08-03T15:20:27.739Z,95.80
2022-08-03T15:22:41.084Z,95.30
2022-08-03T15:24:49.445Z,95.60
2022-08-03T15:26:57.646Z,96.80
2022-08-03T15:29:05.822Z,97.40
2022-08-03T15:31:14.049Z,98.20
2022-08-03T15:33:29.245Z,98.60
2022-08-03T15:35:37.486Z,98.80
2022-08-03T15:37:46.409Z,97.70
2022-08-03T15:39:59.218Z,97.00
2022-08-03T15:42:08.895Z,96.10
2022-08-03T15:44:20.675Z,96.50
2022-08-03T15:46:29.905Z,95.90
2022-08-03T15:48:39.935Z,96.20
2022-08-03T15:50:48.195Z,97.60
2022-08-03T15:52:57.676Z,97.70
2022-08-03T15:55:06.593Z,98.40
2022-08-03T15:57:14.815Z,98.70
2022-08-03T15:59:23.039Z,99.00
2022-08-03T16:01:31.381Z,99.10
2022-08-03T16:03:40.999Z,99.10
2022-08-03T16:05:49.217Z,99.00
2022-08-03T16:08:04.079Z,98.90
2022-08-03T16:10:13.993Z,99.30
2022-08-03T16:12:22.230Z,98.80
2022-08-03T16:14:34.509Z,98.80
2022-08-03T16:16:48.680Z,98.50
2022-08-03T16:18:58.404Z,98.10
2022-08-03T16:21:10.899Z,98.30
2022-08-03T16:23:23.800Z,98.20
2022-08-03T16:25:37.697Z,98.30
2022-08-03T16:28:07.388Z,98.30
2022-08-03T16:30:16.859Z,98.40
2022-08-03T16:32:25.091Z,98.40
2022-08-03T16:34:34.767Z,98.50
2022-08-03T16:36:43.037Z,98.50
2022-08-03T16:38:51.411Z,98.30
2022-08-03T16:40:59.872Z,97.90
2022-08-03T16:43:18.422Z,97.90
2022-08-03T16:45:27.428Z,97.80
2022-08-03T16:47:35.742Z,98.10
2022-08-03T16:49:54.093Z,98.10
2022-08-03T16:52:04.608Z,98.40
2022-08-03T16:54:13.964Z,98.80
2022-08-03T16:56:22.829Z,99.10
2022-08-03T16:58:41.525Z,97.90
2022-08-03T17:00:51.162Z,97.80
2022-08-03T17:03:00.835Z,97.50
2022-08-03T17:05:14.232Z,98.10
2022-08-03T17:07:23.680Z,98.50
2022-08-03T17:09:38.295Z,98.30
2022-08-03T17:11:48.517Z,98.20
2022-08-03T17:13:57.375Z,98.40
2022-08-03T17:16:08.753Z,98.20
2022-08-03T17:18:19.338Z,98.30
2022-08-03T17:20:33.671Z,98.80
2022-08-03T17:23:02.223Z,98.90
2022-08-03T17:25:22.111Z,99.20
2022-08-03T17:28:49.289Z,98.80
2022-08-03T17:30:13.620Z,99.30
2022-08-03T17:32:22.002Z,99.20
2022-08-03T17:34:33.132Z,99.40
2022-08-03T17:39:17.286Z,99.70
2022-08-03T17:41:27.680Z,99.60
2022-08-03T17:44:16.465Z,99.60
2022-08-03T17:46:12.190Z,99.80
2022-08-03T17:48:20.762Z,99.70
2022-08-03T17:50:41.920Z,99.60
2022-08-03T17:52:57.458Z,99.50
2022-08-03T17:55:54.917Z,99.50
2022-08-03T17:58:02.583Z,99.70
2022-08-03T18:00:31.696Z,99.80
2022-08-03T18:03:05.462Z,99.90
2022-08-03T18:07:47.174Z,99.90
2022-08-03T18:10:05.862Z,99.90
2022-08-03T18:12:28.165Z,99.90
2022-08-03T18:14:57.741Z,99.90
2022-08-03T18:17:15.708Z,99.90
2022-08-03T18:20:03.237Z,99.90
2022-08-03T18:22:03.107Z,99.90
2022-08-03T18:24:12.922Z,99.90
2022-08-03T18:26:25.020Z,99.90
2022-08-03T18:28:33.490Z,99.90
2022-08-03T18:30:54.194Z,99.90
2022-08-03T18:34:16.746Z,99.90
2022-08-03T18:35:53.792Z,99.90
2022-08-03T18:38:01.287Z,99.90
2022-08-03T18:40:10.513Z,99.90
2022-08-03T18:42:25.845Z,99.90
2022-08-03T18:44:53.081Z,99.90
2022-08-03T18:47:17.137Z,99.90
2022-08-03T18:49:41.542Z,99.90
2022-08-03T18:51:54.998Z,99.90
2022-08-03T18:54:09.716Z,99.90
2022-08-03T18:56:45.038Z,99.90
2022-08-03T18:59:02.431Z,99.90
2022-08-03T19:01:59.581Z,99.90
2022-08-03T19:03:50.785Z,99.90
2022-08-03T19:06:13.251Z,99.90
2022-08-03T19:08:28.595Z,99.90
2022-08-03T19:10:39.126Z,99.90
2022-08-03T19:12:52.604Z,99.90
2022-08-03T19:15:10.360Z,99.90
2022-08-03T19:17:22.733Z,99.90
2022-08-03T19:19:44.209Z,99.90
2022-08-03T19:21:54.378Z,99.90
2022-08-03T19:24:09.498Z,99.90
2022-08-03T19:26:30.496Z,99.90
2022-08-03T19:28:41.705Z,99.90
2022-08-03T19:30:55.384Z,99.90
2022-08-03T19:33:04.735Z,99.90
2022-08-03T19:35:18.988Z,99.90
2022-08-03T19:37:45.541Z,99.90
2022-08-03T19:39:56.502Z,99.90
2022-08-03T19:42:12.174Z,99.90
2022-08-03T19:44:32.263Z,99.90
2022-08-03T19:46:50.825Z,99.90
2022-08-03T19:49:04.373Z,99.90
2022-08-03T19:51:19.008Z,99.90
2022-08-03T19:53:42.790Z,99.90
2022-08-03T19:55:58.237Z,99.90
2022-08-03T19:58:09.263Z,99.90
2022-08-03T20:00:32.723Z,99.90
2022-08-03T20:02:50.884Z,99.90
2022-08-03T20:05:00.562Z,99.90
2022-08-03T20:07:08.864Z,99.90
2022-08-03T20:09:18.268Z,99.90
2022-08-03T20:11:28.626Z,99.90
2022-08-03T20:13:39.101Z,99.90
2022-08-03T20:15:47.569Z,99.90
2022-08-03T20:18:03.785Z,99.90
2022-08-03T20:20:13.493Z,99.90
2022-08-03T20:22:27.866Z,99.90
2022-08-03T20:24:37.770Z,99.90
2022-08-03T20:26:53.364Z,99.90
2022-08-03T20:29:06.079Z,99.90
2022-08-03T20:31:18.896Z,99.90
2022-08-03T20:33:45.909Z,99.90
2022-08-03T20:35:57.189Z,99.90
2022-08-03T20:38:06.836Z,99.90
2022-08-03T20:40:15.081Z,99.90
2022-08-03T20:42:23.718Z,99.90
2022-08-03T20:44:32.320Z,99.90
2022-08-03T20:46:53.093Z,99.90
2022-08-03T20:49:09.927Z,99.90
2022-08-03T20:51:49.015Z,99.90
2022-08-03T20:54:00.219Z,99.90
2022-08-03T20:56:10.774Z,99.90
2022-08-03T20:58:23.890Z,99.90
2022-08-03T21:00:32.454Z,99.90
2022-08-03T21:02:41.281Z,99.90
2022-08-03T21:04:51.115Z,99.90
2022-08-03T21:07:03.782Z,99.90
2022-08-03T21:09:33.570Z,99.90
2022-08-03T21:11:51.186Z,99.90
2022-08-03T21:12:56.493Z,99.90
2022-08-03T21:14:03.727Z,99.90
2022-08-03T21:16:15.154Z,99.90
2022-08-03T21:18:24.641Z,99.90
2022-08-03T21:20:36.172Z,99.90
2022-08-03T21:22:50.528Z,99.90
2022-08-03T21:25:03.722Z,99.90
2022-08-03T21:27:12.872Z,99.90
2022-08-03T21:29:21.691Z,99.90
2022-08-03T21:31:30.180Z,99.90
2022-08-03T21:33:38.772Z,99.90
2022-08-03T21:35:50.573Z,99.90
2022-08-03T21:38:16.483Z,99.90
2022-08-03T21:40:24.689Z,99.90
2022-08-03T21:42:32.979Z,99.90
2022-08-03T21:44:41.289Z,99.90
2022-08-03T21:46:50.830Z,99.90
2022-08-03T21:50:04.119Z,99.90
2022-08-03T21:51:34.067Z,99.90
2022-08-03T21:54:03.151Z,99.90
2022-08-03T21:56:14.239Z,99.90
2022-08-03T21:58:29.614Z,99.90
2022-08-03T22:00:38.171Z,99.90
2022-08-03T22:02:54.484Z,99.90
2022-08-03T22:05:04.810Z,99.90
2022-08-03T22:07:15.383Z,99.90
2022-08-03T22:09:23.879Z,99.90
2022-08-03T22:11:32.499Z,99.90
2022-08-03T22:13:43.043Z,99.90
2022-08-03T22:15:51.811Z,99.90
2022-08-03T22:18:03.642Z,99.90
2022-08-03T22:20:14.456Z,99.90
2022-08-03T22:22:25.930Z,99.90
2022-08-03T22:24:37.120Z,99.90
2022-08-03T22:27:05.832Z,99.90
2022-08-03T22:29:14.212Z,99.90
2022-08-03T22:31:57.114Z,99.90
2022-08-03T22:33:52.676Z,99.90
2022-08-03T22:36:05.002Z,99.90
2022-08-03T22:38:14.662Z,99.90
2022-08-03T22:40:22.971Z,99.90
2022-08-03T22:42:31.793Z,99.90
2022-08-03T22:44:41.595Z,99.90
2022-08-03T22:46:50.018Z,99.90
2022-08-03T22:48:59.237Z,99.90
2022-08-03T22:51:07.699Z,99.90
2022-08-03T22:53:21.746Z,99.90
2022-08-03T22:55:30.301Z,99.90
2022-08-03T22:57:38.703Z,99.90
2022-08-03T22:59:47.535Z,99.90
2022-08-03T23:01:59.944Z,99.90
2022-08-03T23:04:09.873Z,99.90
2022-08-03T23:06:22.320Z,99.90
2022-08-03T23:08:34.401Z,99.90
2022-08-03T23:10:46.981Z,99.90
2022-08-03T23:12:56.811Z,99.90
2022-08-03T23:15:08.531Z,99.90
2022-08-03T23:17:18.208Z,99.90
2022-08-03T23:19:30.211Z,99.90
2022-08-03T23:22:00.218Z,99.90
2022-08-03T23:24:29.349Z,99.90
2022-08-03T23:26:39.146Z,99.90
2022-08-03T23:28:52.065Z,99.90
2022-08-03T23:31:01.202Z,99.90
2022-08-03T23:33:10.479Z,99.90
2022-08-03T23:36:28.256Z,99.90
2022-08-03T23:38:21.656Z,99.90
2022-08-03T23:40:34.139Z,99.90
2022-08-03T23:42:45.425Z,99.90
2022-08-03T23:44:56.595Z,99.90
2022-08-03T23:47:07.651Z,99.90
2022-08-03T23:49:15.871Z,99.90
2022-08-03T23:51:34.499Z,99.90
2022-08-03T23:53:48.650Z,99.90
2022-08-03T23:56:11.247Z,99.90
2022-08-03T23:58:32.749Z,99.90
